METAR Data

Data at: 1200 UTC 21 Apr 2021

METAR for:KCON (Concord Muni, NH, US)
Text:KCON 211151Z AUTO 00000KT 10SM FEW075 FEW095 07/02 A2980 RMK AO2 SLP091 T00670017 10078 20011 58019
Temperature: 6.7°C ( 44°F)
Dewpoint: 1.7°C ( 35°F) [RH = 70%]
Pressure (altimeter):29.80 inches Hg (1009.2 mb) [Sea level pressure: 1009.1 mb]
Winds:calm
Visibility:10 or more sm (16+ km)
Ceiling:at least 12,000 feet AGL
Clouds: few clouds at 7500 feet AGL, few clouds at 9500 feet AGL
QC Flag:automated observation with no human augmentation